createdAt,value
2017-11-21T00:00:57.718Z,1008.34
2017-11-21T00:02:06.542Z,1008.34
2017-11-21T00:03:15.697Z,1008.38
2017-11-21T00:04:24.526Z,1008.37
2017-11-21T00:05:33.637Z,1008.36
2017-11-21T00:06:42.466Z,1008.36
2017-11-21T00:07:51.293Z,1008.32
2017-11-21T00:09:00.120Z,1008.29
2017-11-21T00:10:08.945Z,1008.29
2017-11-21T00:11:17.771Z,1008.27
2017-11-21T00:12:26.601Z,1008.28
2017-11-21T00:13:35.430Z,1008.23
2017-11-21T00:14:44.834Z,1008.24
2017-11-21T00:15:53.661Z,1008.23
2017-11-21T00:17:02.488Z,1008.26
2017-11-21T00:18:11.313Z,1008.28
2017-11-21T00:19:20.140Z,1008.27
2017-11-21T00:20:28.964Z,1008.25
2017-11-21T00:21:37.793Z,1008.3
2017-11-21T00:22:46.619Z,1008.29
2017-11-21T00:23:55.447Z,1008.31
2017-11-21T00:25:04.555Z,1008.27
2017-11-21T00:26:13.631Z,1008.26
2017-11-21T00:27:22.456Z,1008.27
2017-11-21T00:28:31.283Z,1008.27
2017-11-21T00:29:40.389Z,1008.24
2017-11-21T00:30:49.218Z,1008.23
2017-11-21T00:31:58.095Z,1008.25
2017-11-21T00:33:07.479Z,1008.23
2017-11-21T00:34:16.306Z,1008.21
2017-11-21T00:35:25.138Z,1008.16
2017-11-21T00:36:33.960Z,1008.17
2017-11-21T00:37:43.372Z,1008.15
2017-11-21T00:38:52.200Z,1008.16
2017-11-21T00:40:01.027Z,1008.18
2017-11-21T00:41:09.853Z,1008.19
2017-11-21T00:42:18.680Z,1008.18
2017-11-21T00:43:27.808Z,1008.18
2017-11-21T00:44:36.643Z,1008.11
2017-11-21T00:45:45.738Z,1008.1
2017-11-21T00:46:54.563Z,1008.11
2017-11-21T00:48:03.671Z,1008.06
2017-11-21T00:49:12.548Z,1008.04
2017-11-21T00:50:21.653Z,1008.03
2017-11-21T00:51:30.476Z,1008.01
2017-11-21T00:52:39.302Z,1008.02
2017-11-21T00:53:48.134Z,1008.06
2017-11-21T00:54:57.157Z,1008.06
2017-11-21T00:56:05.983Z,1008.07
2017-11-21T00:57:14.818Z,1008.11
2017-11-21T00:58:23.645Z,1008.07
2017-11-21T00:59:32.466Z,1008.07
2017-11-21T01:00:41.590Z,1008.07
2017-11-21T01:01:50.418Z,1008.03
2017-11-21T01:02:59.244Z,1008.05
2017-11-21T01:04:08.070Z,1008.09
2017-11-21T01:05:16.900Z,1008.1
2017-11-21T01:06:25.877Z,1008.11
2017-11-21T01:07:34.704Z,1008.14
2017-11-21T01:08:43.536Z,1008.14
2017-11-21T01:09:52.359Z,1008.18
2017-11-21T01:11:01.190Z,1008.16
2017-11-21T01:12:10.167Z,1008.14
2017-11-21T01:13:18.993Z,1008.18
2017-11-21T01:14:27.821Z,1008.18
2017-11-21T01:15:36.935Z,1008.23
2017-11-21T01:16:45.761Z,1008.26
2017-11-21T01:17:54.685Z,1008.33
2017-11-21T01:19:03.512Z,1008.32
2017-11-21T01:20:12.341Z,1008.34
2017-11-21T01:21:21.167Z,1008.28
2017-11-21T01:22:29.996Z,1008.23
2017-11-21T01:23:38.823Z,1008.26
2017-11-21T01:24:47.665Z,1008.26
2017-11-21T01:25:56.475Z,1008.36
2017-11-21T01:27:05.300Z,1008.4
2017-11-21T01:28:14.128Z,1008.35
2017-11-21T01:29:22.958Z,1008.33
2017-11-21T01:30:31.783Z,1008.36
2017-11-21T01:31:40.613Z,1008.35
2017-11-21T01:32:49.725Z,1008.39
2017-11-21T01:33:58.551Z,1008.36
2017-11-21T01:35:07.679Z,1008.38
2017-11-21T01:36:16.790Z,1008.38
2017-11-21T01:37:25.618Z,1008.39
2017-11-21T01:38:34.446Z,1008.36
2017-11-21T01:39:43.551Z,1008.35
2017-11-21T01:40:52.428Z,1008.31
2017-11-21T01:42:01.254Z,1008.36
2017-11-21T01:43:10.082Z,1008.35
2017-11-21T01:44:18.908Z,1008.36
2017-11-21T01:45:28.017Z,1008.35
2017-11-21T01:46:36.943Z,1008.37
2017-11-21T01:47:45.771Z,1008.38
2017-11-21T01:48:54.597Z,1008.43
2017-11-21T01:50:03.425Z,1008.51
2017-11-21T01:51:12.256Z,1008.49
2017-11-21T01:52:21.279Z,1008.44
2017-11-21T01:53:30.105Z,1008.47
2017-11-21T01:54:38.931Z,1008.44
2017-11-21T01:55:48.033Z,1008.46
2017-11-21T01:56:56.860Z,1008.46
2017-11-21T01:58:05.685Z,1008.46
2017-11-21T01:59:14.514Z,1008.47
2017-11-21T02:00:23.341Z,1008.42
2017-11-21T02:01:32.459Z,1008.42
2017-11-21T02:02:41.287Z,1008.44
2017-11-21T02:03:50.113Z,1008.42
2017-11-21T02:04:58.939Z,1008.44
2017-11-21T02:06:07.770Z,1008.42
2017-11-21T02:07:16.594Z,1008.41
2017-11-21T02:08:25.422Z,1008.37
2017-11-21T02:09:34.818Z,1008.35
2017-11-21T02:10:43.646Z,1008.34
2017-11-21T02:11:52.470Z,1008.36
2017-11-21T02:13:01.300Z,1008.39
2017-11-21T02:14:10.130Z,1008.37
2017-11-21T02:15:18.957Z,1008.37
2017-11-21T02:16:27.784Z,1008.37
2017-11-21T02:17:36.614Z,1008.34
2017-11-21T02:18:45.722Z,1008.34
2017-11-21T02:19:54.551Z,1008.34
2017-11-21T02:21:03.377Z,1008.33
2017-11-21T02:22:12.206Z,1008.36
2017-11-21T02:23:21.032Z,1008.33
2017-11-21T02:24:29.858Z,1008.35
2017-11-21T02:25:38.687Z,1008.3
2017-11-21T02:26:47.512Z,1008.27
2017-11-21T02:27:56.339Z,1008.25
2017-11-21T02:29:05.163Z,1008.27
2017-11-21T02:30:13.989Z,1008.22
2017-11-21T02:31:22.818Z,1008.22
2017-11-21T02:32:31.936Z,1008.19
2017-11-21T02:33:40.771Z,1008.22
2017-11-21T02:34:49.880Z,1008.27
2017-11-21T02:35:58.707Z,1008.24
2017-11-21T02:37:07.551Z,1008.24
2017-11-21T02:38:16.369Z,1008.22
2017-11-21T02:39:25.473Z,1008.27
2017-11-21T02:40:34.300Z,1008.22
2017-11-21T02:41:43.415Z,1008.27
2017-11-21T02:42:52.244Z,1008.24
2017-11-21T02:44:01.231Z,1008.25
2017-11-21T02:45:10.337Z,1008.23
2017-11-21T02:46:19.172Z,1008.19
2017-11-21T02:47:27.998Z,1008.19
2017-11-21T02:48:36.827Z,1008.21
2017-11-21T02:49:45.653Z,1008.21
2017-11-21T02:50:54.794Z,1008.19
2017-11-21T02:52:03.621Z,1008.19
2017-11-21T02:53:12.449Z,1008.12
2017-11-21T02:54:21.569Z,1008.15
2017-11-21T02:55:30.737Z,1008.1
2017-11-21T02:56:39.563Z,1008.1
2017-11-21T02:57:48.390Z,1008.12
2017-11-21T02:58:57.216Z,1008.14
2017-11-21T03:00:06.043Z,1008.17
2017-11-21T03:01:14.969Z,1008.26
2017-11-21T03:02:23.803Z,1008.28
2017-11-21T03:03:32.623Z,1008.32
2017-11-21T03:04:41.451Z,1008.34
2017-11-21T03:05:50.557Z,1008.35
2017-11-21T03:06:59.432Z,1008.38
2017-11-21T03:08:08.259Z,1008.39
2017-11-21T03:09:17.096Z,1008.4
2017-11-21T03:10:25.924Z,1008.44
2017-11-21T03:11:34.752Z,1008.49
2017-11-21T03:12:43.728Z,1008.49
2017-11-21T03:13:52.556Z,1008.48
2017-11-21T03:15:01.660Z,1008.46
2017-11-21T03:16:10.487Z,1008.49
2017-11-21T03:17:19.314Z,1008.48
2017-11-21T03:18:28.341Z,1008.44
2017-11-21T03:19:37.167Z,1008.42
2017-11-21T03:20:46.001Z,1008.39
2017-11-21T03:21:54.820Z,1008.42
2017-11-21T03:23:03.646Z,1008.45
2017-11-21T03:24:12.572Z,1008.48
2017-11-21T03:25:21.677Z,1008.5
2017-11-21T03:26:30.782Z,1008.54
2017-11-21T03:27:39.606Z,1008.5
2017-11-21T03:28:48.433Z,1008.52
2017-11-21T03:29:57.510Z,1008.6
2017-11-21T03:31:06.337Z,1008.58
2017-11-21T03:32:15.161Z,1008.56
2017-11-21T03:33:23.992Z,1008.56
2017-11-21T03:34:32.819Z,1008.53
2017-11-21T03:35:41.651Z,1008.55
2017-11-21T03:36:50.473Z,1008.55
2017-11-21T03:37:59.299Z,1008.51
2017-11-21T03:39:08.126Z,1008.51
2017-11-21T03:40:16.954Z,1008.51
2017-11-21T03:41:25.882Z,1008.51
2017-11-21T03:42:34.711Z,1008.5
2017-11-21T03:43:43.816Z,1008.51
2017-11-21T03:44:52.648Z,1008.53
2017-11-21T03:46:01.755Z,1008.57
2017-11-21T03:47:10.626Z,1008.57
2017-11-21T03:48:19.735Z,1008.59
2017-11-21T03:49:28.564Z,1008.57
2017-11-21T03:50:37.667Z,1008.55
2017-11-21T03:51:46.495Z,1008.56
2017-11-21T03:52:55.474Z,1008.54
2017-11-21T03:54:04.301Z,1008.55
2017-11-21T03:55:13.128Z,1008.55
2017-11-21T03:56:21.954Z,1008.56
2017-11-21T03:57:30.780Z,1008.54
2017-11-21T03:58:39.606Z,1008.51
2017-11-21T03:59:48.433Z,1008.49
2017-11-21T04:00:57.270Z,1008.49
2017-11-21T04:02:06.091Z,1008.5
2017-11-21T04:03:14.918Z,1008.53
2017-11-21T04:04:23.847Z,1008.54
2017-11-21T04:05:32.672Z,1008.57
2017-11-21T04:06:41.500Z,1008.56
2017-11-21T04:07:50.325Z,1008.6
2017-11-21T04:08:59.155Z,1008.67
2017-11-21T04:10:08.039Z,1008.73
2017-11-21T04:11:16.860Z,1008.7
2017-11-21T04:12:25.688Z,1008.71
2017-11-21T04:13:34.517Z,1008.67
2017-11-21T04:14:43.344Z,1008.68
2017-11-21T04:15:52.471Z,1008.67
2017-11-21T04:17:01.298Z,1008.69
2017-11-21T04:18:10.134Z,1008.7
2017-11-21T04:19:18.963Z,1008.66
2017-11-21T04:20:28.068Z,1008.77
2017-11-21T04:21:37.246Z,1008.8
2017-11-21T04:22:46.072Z,1008.87
2017-11-21T04:23:54.900Z,1008.85
2017-11-21T04:25:04.007Z,1008.9
2017-11-21T04:26:12.832Z,1008.86
2017-11-21T04:27:21.707Z,1008.86
2017-11-21T04:28:30.535Z,1008.83
2017-11-21T04:29:39.363Z,1008.86
2017-11-21T04:30:48.191Z,1008.86
2017-11-21T04:31:57.019Z,1008.87
2017-11-21T04:33:05.897Z,1008.88
2017-11-21T04:34:14.727Z,1008.93
2017-11-21T04:35:23.555Z,1008.92
2017-11-21T04:36:32.381Z,1008.92
2017-11-21T04:37:41.211Z,1008.92
2017-11-21T04:38:50.189Z,1008.94
2017-11-21T04:39:59.313Z,1008.93
2017-11-21T04:41:08.137Z,1008.87
2017-11-21T04:42:16.965Z,1008.87
2017-11-21T04:43:25.794Z,1008.87
2017-11-21T04:44:34.722Z,1008.9
2017-11-21T04:45:43.551Z,1008.9
2017-11-21T04:46:52.379Z,1008.9
2017-11-21T04:48:01.209Z,1008.84
2017-11-21T04:49:10.038Z,1008.84
2017-11-21T04:50:19.013Z,1008.92
2017-11-21T04:51:27.841Z,1008.9
2017-11-21T04:52:36.669Z,1008.89
2017-11-21T04:53:45.497Z,1008.93
2017-11-21T04:54:54.879Z,1008.97
2017-11-21T04:56:03.760Z,1008.95
2017-11-21T04:57:12.587Z,1008.99
2017-11-21T04:58:21.414Z,1009.01
2017-11-21T04:59:30.241Z,1008.95
2017-11-21T05:00:39.068Z,1008.92
2017-11-21T05:01:47.951Z,1008.92
2017-11-21T05:02:56.774Z,1008.93
2017-11-21T05:04:05.601Z,1008.92
2017-11-21T05:05:14.427Z,1008.93
2017-11-21T05:06:23.255Z,1008.82
2017-11-21T05:07:32.084Z,1008.82
2017-11-21T05:08:40.910Z,1008.83
2017-11-21T05:09:49.738Z,1008.89
2017-11-21T05:10:58.566Z,1008.88
2017-11-21T05:12:07.390Z,1008.92
2017-11-21T05:13:16.268Z,1008.86
2017-11-21T05:14:25.095Z,1008.88
2017-11-21T05:15:33.924Z,1008.89
2017-11-21T05:16:42.759Z,1008.9
2017-11-21T05:17:51.588Z,1008.94
2017-11-21T05:19:00.527Z,1008.91
2017-11-21T05:20:09.346Z,1008.93
2017-11-21T05:21:18.449Z,1008.92
2017-11-21T05:22:27.274Z,1008.9
2017-11-21T05:23:36.101Z,1008.93
2017-11-21T05:24:45.078Z,1008.89
2017-11-21T05:25:53.905Z,1008.92
2017-11-21T05:27:02.738Z,1008.86
2017-11-21T05:28:11.562Z,1008.86
2017-11-21T05:29:20.395Z,1008.86
2017-11-21T05:30:29.217Z,1008.84
2017-11-21T05:31:38.052Z,1008.78
2017-11-21T05:32:46.871Z,1008.77
2017-11-21T05:33:55.983Z,1008.7
2017-11-21T05:35:04.808Z,1008.65
2017-11-21T05:36:13.707Z,1008.66
2017-11-21T05:37:22.518Z,1008.59
2017-11-21T05:38:31.625Z,1008.63
2017-11-21T05:39:40.453Z,1008.7
2017-11-21T05:40:49.280Z,1008.73
2017-11-21T05:41:58.109Z,1008.77
2017-11-21T05:43:06.937Z,1008.78
2017-11-21T05:44:15.764Z,1008.78
2017-11-21T05:45:24.648Z,1008.71
2017-11-21T05:46:33.753Z,1008.7
2017-11-21T05:47:42.735Z,1008.76
2017-11-21T05:48:51.842Z,1008.75
2017-11-21T05:50:00.670Z,1008.81
2017-11-21T05:51:09.497Z,1008.87
2017-11-21T05:52:18.602Z,1008.89
2017-11-21T05:53:27.786Z,1008.93
2017-11-21T05:54:36.897Z,1008.88
2017-11-21T05:55:45.726Z,1008.91
2017-11-21T05:56:54.553Z,1008.88
2017-11-21T05:58:03.665Z,1008.88
2017-11-21T05:59:13.447Z,1008.88
2017-11-21T06:00:22.274Z,1008.91
2017-11-21T06:01:31.387Z,1008.92
2017-11-21T06:02:40.229Z,1008.89
2017-11-21T06:03:49.156Z,1008.89
2017-11-21T06:04:58.182Z,1008.9
2017-11-21T06:06:07.116Z,1008.95
2017-11-21T06:07:16.227Z,1008.97
2017-11-21T06:08:25.057Z,1009.02
2017-11-21T06:09:34.164Z,1009.03
2017-11-21T06:10:43.291Z,1009.01
2017-11-21T06:11:52.119Z,1009.04
2017-11-21T06:13:00.951Z,1009.04
2017-11-21T06:14:09.778Z,1009.02
2017-11-21T06:15:18.883Z,1009.01
2017-11-21T06:16:28.060Z,1009.02
2017-11-21T06:17:36.889Z,1009.03
2017-11-21T06:18:45.717Z,1009
2017-11-21T06:19:54.545Z,1009.06
2017-11-21T06:21:03.377Z,1009.04
2017-11-21T06:22:12.406Z,1009.07
2017-11-21T06:23:21.234Z,1009.09
2017-11-21T06:24:30.355Z,1009.07
2017-11-21T06:25:39.186Z,1009.04
2017-11-21T06:26:48.023Z,1008.98
2017-11-21T06:27:57.130Z,1009
2017-11-21T06:29:05.966Z,1008.99
2017-11-21T06:30:14.794Z,1009.07
2017-11-21T06:31:23.918Z,1009.11
2017-11-21T06:32:32.848Z,1009.11
2017-11-21T06:33:41.676Z,1009.18
2017-11-21T06:34:50.502Z,1009.13
2017-11-21T06:35:59.574Z,1009.21
2017-11-21T06:37:08.648Z,1009.15
2017-11-21T06:38:17.538Z,1009.13
2017-11-21T06:39:26.384Z,1009.18
2017-11-21T06:40:35.215Z,1009.13
2017-11-21T06:41:44.065Z,1009.14
2017-11-21T06:42:52.905Z,1009.18
2017-11-21T06:44:02.128Z,1009.21
2017-11-21T06:45:11.509Z,1009.17
2017-11-21T06:46:20.338Z,1009.14
2017-11-21T06:47:29.167Z,1009.17
2017-11-21T06:48:38.000Z,1009.13
2017-11-21T06:49:46.830Z,1009.13
2017-11-21T06:50:55.975Z,1009.13
2017-11-21T06:52:04.805Z,1009.11
2017-11-21T06:53:13.691Z,1009.08
2017-11-21T06:54:22.516Z,1009.09
2017-11-21T06:55:31.352Z,1009.11
2017-11-21T06:56:40.174Z,1009.11
2017-11-21T06:57:49.004Z,1009.12
2017-11-21T06:58:57.984Z,1009.13
2017-11-21T07:00:06.824Z,1009.12
2017-11-21T07:01:15.641Z,1009.16
2017-11-21T07:02:24.748Z,1009.18
2017-11-21T07:03:33.577Z,1009.19
2017-11-21T07:04:42.407Z,1009.21
2017-11-21T07:05:51.235Z,1009.22
2017-11-21T07:07:00.066Z,1009.25
2017-11-21T07:08:08.895Z,1009.27
2017-11-21T07:09:17.724Z,1009.27
2017-11-21T07:10:26.704Z,1009.2
2017-11-21T07:11:35.532Z,1009.2
2017-11-21T07:12:44.361Z,1009.22
2017-11-21T07:13:53.187Z,1009.19
2017-11-21T07:15:02.019Z,1009.2
2017-11-21T07:16:10.995Z,1009.19
2017-11-21T07:17:19.823Z,1009.21
2017-11-21T07:18:28.652Z,1009.22
2017-11-21T07:19:37.487Z,1009.23
2017-11-21T07:20:46.595Z,1009.31
2017-11-21T07:21:55.474Z,1009.29
2017-11-21T07:23:04.302Z,1009.29
2017-11-21T07:24:13.130Z,1009.26
2017-11-21T07:25:21.958Z,1009.25
2017-11-21T07:26:30.786Z,1009.28
2017-11-21T07:27:39.896Z,1009.24
2017-11-21T07:28:48.725Z,1009.26
2017-11-21T07:29:57.549Z,1009.26
2017-11-21T07:31:06.379Z,1009.3
2017-11-21T07:32:15.485Z,1009.3
2017-11-21T07:33:24.315Z,1009.28
2017-11-21T07:34:33.145Z,1009.32
2017-11-21T07:35:41.976Z,1009.25
2017-11-21T07:36:50.806Z,1009.27
2017-11-21T07:37:59.639Z,1009.29
2017-11-21T07:39:08.565Z,1009.27
2017-11-21T07:40:17.392Z,1009.3
2017-11-21T07:41:26.221Z,1009.3
2017-11-21T07:42:35.050Z,1009.28
2017-11-21T07:43:43.877Z,1009.28
2017-11-21T07:44:52.961Z,1009.32
2017-11-21T07:46:02.065Z,1009.32
2017-11-21T07:47:10.894Z,1009.33
2017-11-21T07:48:19.723Z,1009.38
2017-11-21T07:49:28.548Z,1009.42
2017-11-21T07:50:37.527Z,1009.42
2017-11-21T07:51:46.356Z,1009.47
2017-11-21T07:52:55.205Z,1009.48
2017-11-21T07:54:04.032Z,1009.48
2017-11-21T07:55:12.867Z,1009.47
2017-11-21T07:56:22.268Z,1009.52
2017-11-21T07:57:31.096Z,1009.5
2017-11-21T07:58:40.207Z,1009.49
2017-11-21T07:59:49.036Z,1009.51
2017-11-21T08:00:57.865Z,1009.49
2017-11-21T08:02:06.793Z,1009.5
2017-11-21T08:03:15.621Z,1009.51
2017-11-21T08:04:24.452Z,1009.51
2017-11-21T08:05:33.288Z,1009.46
2017-11-21T08:06:42.109Z,1009.42
2017-11-21T08:07:51.089Z,1009.4
2017-11-21T08:08:59.921Z,1009.45
2017-11-21T08:10:08.751Z,1009.43
2017-11-21T08:11:17.579Z,1009.46
2017-11-21T08:12:26.407Z,1009.47
2017-11-21T08:13:35.291Z,1009.47
2017-11-21T08:14:44.113Z,1009.49
2017-11-21T08:15:53.225Z,1009.5
2017-11-21T08:17:02.334Z,1009.55
2017-11-21T08:18:11.441Z,1009.52
2017-11-21T08:19:20.675Z,1009.49
2017-11-21T08:20:29.499Z,1009.47
2017-11-21T08:21:38.327Z,1009.5
2017-11-21T08:22:47.441Z,1009.53
2017-11-21T08:23:56.269Z,1009.49
2017-11-21T08:25:05.195Z,1009.47
2017-11-21T08:26:14.300Z,1009.55
2017-11-21T08:27:23.129Z,1009.54
2017-11-21T08:28:32.237Z,1009.54
2017-11-21T08:29:41.065Z,1009.5
2017-11-21T08:30:50.044Z,1009.53
2017-11-21T08:31:58.872Z,1009.52
2017-11-21T08:33:07.700Z,1009.55
2017-11-21T08:34:16.538Z,1009.53
2017-11-21T08:35:25.645Z,1009.57
2017-11-21T08:36:34.474Z,1009.57
2017-11-21T08:37:43.304Z,1009.61
2017-11-21T08:38:52.136Z,1009.6
2017-11-21T08:40:00.965Z,1009.66
2017-11-21T08:41:09.796Z,1009.57
2017-11-21T08:42:18.927Z,1009.63
2017-11-21T08:43:27.757Z,1009.61
2017-11-21T08:44:36.587Z,1009.61
2017-11-21T08:45:45.421Z,1009.64
2017-11-21T08:46:54.248Z,1009.64
2017-11-21T08:48:03.228Z,1009.69
2017-11-21T08:49:12.057Z,1009.69
2017-11-21T08:50:20.886Z,1009.76
2017-11-21T08:51:30.000Z,1009.78
2017-11-21T08:52:39.110Z,1009.79
2017-11-21T08:53:47.930Z,1009.84
2017-11-21T08:54:56.813Z,1009.84
2017-11-21T08:56:05.642Z,1009.88
2017-11-21T08:57:14.472Z,1009.81
2017-11-21T08:58:23.300Z,1009.81
2017-11-21T08:59:32.205Z,1009.84
2017-11-21T09:00:41.010Z,1009.83
2017-11-21T09:01:49.837Z,1009.83
2017-11-21T09:02:58.669Z,1009.82
2017-11-21T09:04:07.776Z,1009.83
2017-11-21T09:05:16.663Z,1009.87
2017-11-21T09:06:25.761Z,1009.79
2017-11-21T09:07:34.593Z,1009.79
2017-11-21T09:08:43.708Z,1009.78
2017-11-21T09:09:52.537Z,1009.78
2017-11-21T09:11:01.466Z,1009.79
2017-11-21T09:12:10.296Z,1009.8
2017-11-21T09:13:19.122Z,1009.83
2017-11-21T09:14:27.952Z,1009.78
2017-11-21T09:15:36.780Z,1009.81
2017-11-21T09:16:45.808Z,1009.84
2017-11-21T09:17:54.639Z,1009.89
2017-11-21T09:19:03.469Z,1009.89
2017-11-21T09:20:12.299Z,1009.9
2017-11-21T09:21:21.126Z,1009.84
2017-11-21T09:22:29.955Z,1009.88
2017-11-21T09:23:38.783Z,1009.85
2017-11-21T09:24:47.615Z,1009.84
2017-11-21T09:25:56.463Z,1009.79
2017-11-21T09:27:05.556Z,1009.79
2017-11-21T09:28:14.428Z,1009.84
2017-11-21T09:29:23.259Z,1009.82
2017-11-21T09:30:32.089Z,1009.81
2017-11-21T09:31:41.203Z,1009.79
2017-11-21T09:32:50.033Z,1009.81
2017-11-21T09:33:58.864Z,1009.84
2017-11-21T09:35:07.973Z,1009.86
2017-11-21T09:36:16.801Z,1009.85
2017-11-21T09:37:25.626Z,1009.85
2017-11-21T09:38:34.455Z,1009.88
2017-11-21T09:39:43.384Z,1009.81
2017-11-21T09:40:52.211Z,1009.83
2017-11-21T09:42:01.043Z,1009.74
2017-11-21T09:43:09.874Z,1009.78
2017-11-21T09:44:18.706Z,1009.77
2017-11-21T09:45:27.937Z,1009.77
2017-11-21T09:46:36.775Z,1009.79
2017-11-21T09:47:45.600Z,1009.8
2017-11-21T09:48:54.430Z,1009.85
2017-11-21T09:50:03.268Z,1009.85
2017-11-21T09:51:12.521Z,1009.82
2017-11-21T09:52:21.351Z,1009.8
2017-11-21T09:53:30.192Z,1009.87
2017-11-21T09:54:39.009Z,1009.87
2017-11-21T09:55:47.839Z,1009.86
2017-11-21T09:56:56.720Z,1009.83
2017-11-21T09:58:05.545Z,1009.82
2017-11-21T09:59:14.376Z,1009.84
2017-11-21T10:00:23.206Z,1009.79
2017-11-21T10:01:32.035Z,1009.79
2017-11-21T10:02:40.923Z,1009.72
2017-11-21T10:03:50.021Z,1009.74
2017-11-21T10:04:59.129Z,1009.76
2017-11-21T10:06:07.958Z,1009.78
2017-11-21T10:07:16.787Z,1009.7
2017-11-21T10:08:25.685Z,1009.71
2017-11-21T10:09:34.779Z,1009.65
2017-11-21T10:10:43.612Z,1009.62
2017-11-21T10:11:52.730Z,1009.68
2017-11-21T10:13:01.558Z,1009.67
2017-11-21T10:14:10.586Z,1009.63
2017-11-21T10:15:19.418Z,1009.66
2017-11-21T10:16:28.255Z,1009.7
2017-11-21T10:17:37.363Z,1009.65
2017-11-21T10:18:46.193Z,1009.69
2017-11-21T10:19:55.224Z,1009.66
2017-11-21T10:21:04.059Z,1009.63
2017-11-21T10:22:12.881Z,1009.63
2017-11-21T10:23:21.711Z,1009.66
2017-11-21T10:24:30.542Z,1009.61
2017-11-21T10:25:39.519Z,1009.6
2017-11-21T10:26:48.349Z,1009.62
2017-11-21T10:27:57.455Z,1009.57
2017-11-21T10:29:06.288Z,1009.59
2017-11-21T10:30:15.676Z,1009.59
2017-11-21T10:31:24.655Z,1009.58
2017-11-21T10:32:33.489Z,1009.59
2017-11-21T10:33:42.320Z,1009.59
2017-11-21T10:34:51.202Z,1009.58
2017-11-21T10:35:59.982Z,1009.55
2017-11-21T10:37:09.160Z,1009.53
2017-11-21T10:38:17.990Z,1009.54
2017-11-21T10:39:27.112Z,1009.52
2017-11-21T10:40:35.945Z,1009.52
2017-11-21T10:41:44.774Z,1009.52
2017-11-21T10:42:54.004Z,1009.53
2017-11-21T10:44:02.835Z,1009.53
2017-11-21T10:45:11.666Z,1009.5
2017-11-21T10:46:20.497Z,1009.48
2017-11-21T10:47:29.326Z,1009.5
2017-11-21T10:48:38.173Z,1009.45
2017-11-21T10:49:46.988Z,1009.46
2017-11-21T10:50:55.816Z,1009.41
2017-11-21T10:52:04.644Z,1009.4
2017-11-21T10:53:13.473Z,1009.37
2017-11-21T10:54:22.311Z,1009.38
2017-11-21T10:55:31.414Z,1009.38
2017-11-21T10:56:40.241Z,1009.31
2017-11-21T10:57:49.346Z,1009.3
2017-11-21T10:58:58.174Z,1009.28
2017-11-21T11:00:07.154Z,1009.28
2017-11-21T11:01:15.981Z,1009.31
2017-11-21T11:02:24.814Z,1009.26
2017-11-21T11:03:33.640Z,1009.27
2017-11-21T11:04:42.471Z,1009.24
2017-11-21T11:05:51.357Z,1009.19
2017-11-21T11:07:00.228Z,1009.21
2017-11-21T11:08:09.060Z,1009.18
2017-11-21T11:09:17.890Z,1009.2
2017-11-21T11:10:26.998Z,1009.2
2017-11-21T11:11:35.844Z,1009.16
2017-11-21T11:12:44.681Z,1009.17
2017-11-21T11:13:53.511Z,1009.14
2017-11-21T11:15:02.341Z,1009.15
2017-11-21T11:16:11.171Z,1009.12
2017-11-21T11:17:20.050Z,1009.16
2017-11-21T11:18:28.880Z,1009.13
2017-11-21T11:19:37.718Z,1009.13
2017-11-21T11:20:46.548Z,1009.14
2017-11-21T11:21:55.382Z,1009.19
2017-11-21T11:23:04.743Z,1009.17
2017-11-21T11:24:14.133Z,1009.17
2017-11-21T11:25:23.257Z,1009.13
2017-11-21T11:26:32.089Z,1009.13
2017-11-21T11:27:40.923Z,1009.14
2017-11-21T11:28:50.094Z,1009.14
2017-11-21T11:29:58.926Z,1009.09
2017-11-21T11:31:07.764Z,1009.09
2017-11-21T11:32:16.595Z,1009.11
2017-11-21T11:33:25.703Z,1009.09
2017-11-21T11:34:34.582Z,1009.11
2017-11-21T11:35:43.693Z,1009.06
2017-11-21T11:36:52.522Z,1009.04
2017-11-21T11:38:01.767Z,1009.03
2017-11-21T11:39:10.599Z,1009.02
2017-11-21T11:40:19.589Z,1009.08
2017-11-21T11:41:28.436Z,1009.07
2017-11-21T11:42:37.949Z,1009.07
2017-11-21T11:43:46.786Z,1009.07
2017-11-21T11:44:55.610Z,1009
2017-11-21T11:46:04.691Z,1009.04
2017-11-21T11:47:13.572Z,1009.01
2017-11-21T11:48:22.405Z,1009.03
2017-11-21T11:49:31.603Z,1009
2017-11-21T11:50:40.433Z,1009.02
2017-11-21T11:51:49.314Z,1009
2017-11-21T11:52:58.149Z,1009.04
2017-11-21T11:54:06.994Z,1009.02
2017-11-21T11:55:15.897Z,1009.01
2017-11-21T11:56:24.994Z,1009
2017-11-21T11:57:34.106Z,1008.99
2017-11-21T11:58:43.757Z,1008.99
2017-11-21T11:59:53.447Z,1008.96
2017-11-21T12:01:02.796Z,1009.02
2017-11-21T12:02:11.704Z,1008.93
2017-11-21T12:03:22.439Z,1008.94
2017-11-21T12:04:31.352Z,1008.96
2017-11-21T12:05:40.451Z,1008.97
2017-11-21T12:06:49.618Z,1008.97
2017-11-21T12:07:58.677Z,1008.91
2017-11-21T12:10:47.445Z,1008.93
2017-11-21T12:11:57.516Z,1008.89
2017-11-21T12:13:06.663Z,1008.87
2017-11-21T12:14:15.538Z,1008.88
2017-11-21T12:15:24.714Z,1008.87
2017-11-21T12:16:33.750Z,1008.88
2017-11-21T12:17:42.689Z,1008.89
2017-11-21T12:18:52.148Z,1008.84
2017-11-21T12:20:01.200Z,1008.75
2017-11-21T12:21:10.116Z,1008.78
2017-11-21T12:22:18.967Z,1008.82
2017-11-21T12:23:28.013Z,1008.8
2017-11-21T12:24:37.230Z,1008.78
2017-11-21T12:25:46.465Z,1008.77
2017-11-21T12:26:55.986Z,1008.74
2017-11-21T12:28:05.362Z,1008.76
2017-11-21T12:29:14.749Z,1008.75
2017-11-21T12:30:25.556Z,1008.71
2017-11-21T12:31:35.411Z,1008.75
2017-11-21T12:32:44.577Z,1008.69
2017-11-21T12:33:53.893Z,1008.7
2017-11-21T12:35:03.311Z,1008.72
2017-11-21T12:36:12.660Z,1008.71
2017-11-21T12:39:00.477Z,1008.7
2017-11-21T12:40:10.251Z,1008.65
2017-11-21T12:41:19.293Z,1008.64
2017-11-21T12:42:28.204Z,1008.62
2017-11-21T12:43:37.286Z,1008.63
2017-11-21T12:44:46.389Z,1008.61
2017-11-21T12:45:55.258Z,1008.61
2017-11-21T12:47:04.550Z,1008.6
2017-11-21T12:48:13.786Z,1008.61
2017-11-21T12:49:22.916Z,1008.63
2017-11-21T12:50:33.370Z,1008.57
2017-11-21T12:51:42.646Z,1008.57
2017-11-21T12:52:51.783Z,1008.54
2017-11-21T12:54:00.764Z,1008.52
2017-11-21T12:55:10.150Z,1008.53
2017-11-21T12:56:18.982Z,1008.52
2017-11-21T12:57:27.814Z,1008.53
2017-11-21T12:58:36.647Z,1008.51
2017-11-21T12:59:45.581Z,1008.43
2017-11-21T13:00:54.696Z,1008.48
2017-11-21T13:02:03.527Z,1008.47
2017-11-21T13:03:12.639Z,1008.45
2017-11-21T13:04:21.472Z,1008.45
2017-11-21T13:05:30.306Z,1008.45
2017-11-21T13:06:39.133Z,1008.45
2017-11-21T13:07:48.269Z,1008.47
2017-11-21T13:08:57.102Z,1008.43
2017-11-21T13:10:05.933Z,1008.4
2017-11-21T13:11:14.816Z,1008.4
2017-11-21T13:12:23.659Z,1008.38
2017-11-21T13:13:32.482Z,1008.4
2017-11-21T13:14:41.315Z,1008.37
2017-11-21T13:15:50.436Z,1008.39
2017-11-21T13:16:59.321Z,1008.39
2017-11-21T13:18:08.154Z,1008.38
2017-11-21T13:19:16.984Z,1008.37
2017-11-21T13:20:25.825Z,1008.39
2017-11-21T13:21:34.667Z,1008.36
2017-11-21T13:22:44.029Z,1008.37
2017-11-21T13:23:52.859Z,1008.39
2017-11-21T13:25:01.695Z,1008.35
2017-11-21T13:26:10.524Z,1008.37
2017-11-21T13:27:19.357Z,1008.34
2017-11-21T13:28:28.714Z,1008.36
2017-11-21T13:29:37.547Z,1008.34
2017-11-21T13:30:46.390Z,1008.28
2017-11-21T13:31:55.315Z,1008.29
2017-11-21T13:33:04.432Z,1008.27
2017-11-21T13:34:13.315Z,1008.25
2017-11-21T13:35:22.148Z,1008.24
2017-11-21T13:36:30.979Z,1008.23
2017-11-21T13:37:40.094Z,1008.22
2017-11-21T13:38:49.203Z,1008.25
2017-11-21T13:39:58.185Z,1008.23
2017-11-21T13:41:07.021Z,1008.2
2017-11-21T13:42:15.855Z,1008.17
2017-11-21T13:43:24.984Z,1008.21
2017-11-21T13:44:33.819Z,1008.19
2017-11-21T13:45:42.653Z,1008.22
2017-11-21T13:46:51.485Z,1008.19
2017-11-21T13:48:00.321Z,1008.2
2017-11-21T13:49:09.154Z,1008.19
2017-11-21T13:50:17.991Z,1008.18
2017-11-21T13:51:27.109Z,1008.22
2017-11-21T13:52:35.943Z,1008.19
2017-11-21T13:53:44.776Z,1008.2
2017-11-21T13:54:53.606Z,1008.15
2017-11-21T13:56:02.439Z,1008.17
2017-11-21T13:57:11.270Z,1008.2
2017-11-21T13:58:20.100Z,1008.17
2017-11-21T13:59:29.210Z,1008.1
2017-11-21T14:00:38.042Z,1008.1